Bassetts, California
Current Conditions -  °F | °C
As of 3:52 AM on Sunday 23 Nov 2014 (Local Time) from KBLU Reporting Station
Clear Clear  
Wind Chill: 30°   Ceiling: Unl
Heat Index: 36°   Visibility: 10mi
Dew Point: 18°   Wind: 8mph
Humidity: 48%   Direction: 50°NE
Pressure: 30.24"   Gusts: 20mph
Location:  39.5538°N, 120.638°W
Report Text: KBLU 231152Z AUTO 05007G17KT 020V080 10SM CLR 02/M08 A3024 RMK AO2 SLP231 70136 T00221078 10028 20006 57005
Loading
Personal Weather Stations






























Interactive Weather Map New forecast layout! Learn more

10-Day Weather Forecast

Advertisements
Track Severe Weather on mobile